Flight Track Log - Related Links

Times and Time Zones

All times are in EDT time to prevent confusion due to time zone crossing. See the FLG3729 flight status page for this flight to view local times or setup timezone preferences in your user account.


Time Position Orientation Groundspeed Altitude Reporting Facility
EDT Latitude Longitude Course Direction KTS MPH feet Rate Location/Type
Fri 05:51:39 AM 42.7672 -73.8061 283° West 158 182 1,400  Level Boston Center
Fri 05:52:10 AM 42.7922 -73.8067 359° North 162 186 2,500 2,120 Climbing Boston Center
Fri 05:53:52 AM 42.8811 -73.8767 330° Northwest 253 291 6,100 2,667 Climbing Boston Center
Fri 05:54:00 AM 42.8069 -74.1483 281° West  Level FlightAware Approximate
Fri 05:54:52 AM 42.9511 -73.9350 329° Northwest 273 314 9,700  Level Boston Center
Fri 05:55:00 AM 42.8242 -74.2688 281° West  Level FlightAware Approximate
Fri 05:55:52 AM 42.9728 -74.0292 287° West 268 308 11,100  Level Boston Center
Fri 05:56:00 AM 42.8426 -74.3889 283° West  Level FlightAware Approximate
Fri 05:56:52 AM 42.9856 -74.1658 277° West 319 367 12,400  Level Boston Center
Fri 05:57:52 AM 42.9961 -74.2881 277° West 357 411 14,400 1,950 Climbing Boston Center
Fri 05:58:52 AM 43.0103 -74.4333 278° West 368 423 16,300 1,500 Climbing Boston Center
Fri 05:59:52 AM 43.0206 -74.5586 276° West 373 429 17,400 1,000 Climbing Boston Center
Fri 06:00:52 AM 43.0342 -74.7125 277° West 373 429 18,300 1,050 Climbing Boston Center
Fri 06:01:52 AM 43.0481 -74.8553 278° West 373 429 19,500 1,200 Climbing Boston Center
Fri 06:02:52 AM 43.0617 -74.9978 277° West 373 429 20,700 1,200 Climbing Boston Center
Fri 06:03:52 AM 43.0728 -75.1403 276° West 373 429 21,900 1,200 Climbing Boston Center
Fri 06:04:52 AM 43.0861 -75.2803 277° West 373 429 23,100 1,100 Climbing Boston Center
Fri 06:05:52 AM 43.0975 -75.4089 277° West 378 435 24,100 1,100 Climbing Boston Center
Fri 06:06:52 AM 43.1083 -75.5517 276° West 378 435 25,300 1,100 Climbing Boston Center
Fri 06:07:52 AM 43.1189 -75.6917 276° West 378 435 26,300 1,000 Climbing Boston Center
Fri 06:08:52 AM 43.1314 -75.8344 277° West 378 435 27,300 850 Climbing Boston Center
Fri 06:09:52 AM 43.1439 -75.9747 277° West 378 435 28,000 261 Climbing Boston Center
Fri 06:11:33 AM 43.1581 -76.2369 274° West 376 433 28,000  Level Cleveland Center
Fri 06:12:34 AM 43.1450 -76.3914 263° West 391 450 28,000  Level Cleveland Center
Fri 06:13:33 AM 43.1317 -76.5433 263° West 403 464 28,000  Level Cleveland Center
Fri 06:14:33 AM 43.1203 -76.6975 264° West 409 471 28,000  Level Cleveland Center
Fri 06:15:33 AM 43.1044 -76.8522 262° West 409 471 28,000  Level Cleveland Center
Fri 06:16:33 AM 43.0906 -77.0067 263° West 409 471 28,000  Level Cleveland Center
Fri 06:17:33 AM 43.0764 -77.1581 263° West 409 471 28,000  Level Cleveland Center
Fri 06:18:33 AM 43.0603 -77.3153 262° West 409 471 28,000  Level Cleveland Center
Fri 06:19:33 AM 43.0478 -77.4694 264° West 409 471 28,000  Level Cleveland Center
Fri 06:20:33 AM 43.0331 -77.6236 263° West 409 471 28,000  Level Cleveland Center
Fri 06:21:33 AM 43.0197 -77.7633 263° West 409 471 28,000  Level Cleveland Center
Fri 06:22:33 AM 43.0047 -77.9175 262° West 409 471 28,000  Level Cleveland Center
Fri 06:23:33 AM 42.9894 -78.0769 263° West 414 476 28,000  Level Cleveland Center
Fri 06:24:33 AM 42.9719 -78.2308 261° West 414 476 28,000  Level Cleveland Center
Fri 06:25:33 AM 42.9583 -78.3847 263° West 414 476 28,000  Level Cleveland Center
Fri 06:26:33 AM 42.9403 -78.5442 261° West 414 476 28,000  Level Cleveland Center
Fri 06:27:33 AM 42.9222 -78.6978 261° West 414 476 28,000  Level Cleveland Center
Fri 06:28:33 AM 42.9017 -78.8514 260° West 414 476 28,000  Level Cleveland Center
Fri 06:29:33 AM 42.8789 -79.0022 258° West 409 471 28,000  Level Cleveland Center
Fri 06:30:33 AM 42.8578 -79.1558 259° West 416 479 28,000  Level Cleveland Center
Fri 06:31:33 AM 42.8367 -79.3092 259° West 416 479 28,000  Level Cleveland Center
Fri 06:32:33 AM 42.8111 -79.4625 257° West 410 472 28,000  Level Cleveland Center
Fri 06:33:33 AM 42.7897 -79.6156 259° West 410 472 28,000  Level Cleveland Center
Fri 06:34:33 AM 42.7658 -79.7686 258° West 415 478 28,000  Level Cleveland Center
Fri 06:35:33 AM 42.7500 -79.9244 262° West 415 478 28,000  Level Cleveland Center
Fri 06:36:33 AM 42.7406 -80.0942 266° West 415 478 28,000  Level Cleveland Center
Fri 06:37:33 AM 42.7347 -80.2497 267° West 415 478 28,000  Level Cleveland Center
Fri 06:38:33 AM 42.7289 -80.4022 267° West 408 470 28,000  Level Cleveland Center
Fri 06:39:33 AM 42.7208 -80.5522 266° West 402 463 28,000 -50 Level Cleveland Center
Fri 06:40:33 AM 42.7164 -80.6850 267° West 402 463 27,900 -550 Descending Cleveland Center
Fri 06:41:33 AM 42.7081 -80.8375 266° West 402 463 26,900 -1,000 Descending Cleveland Center
Fri 06:42:33 AM 42.6950 -80.9842 263° West 400 460 25,900 -1,000 Descending Cleveland Center
Fri 06:43:33 AM 42.6797 -81.1283 262° West 388 447 24,900 -1,000 Descending Cleveland Center
Fri 06:44:33 AM 42.6644 -81.2636 261° West 381 438 23,900 -1,050 Descending Cleveland Center
Fri 06:45:33 AM 42.6469 -81.4075 261° West 376 433 22,800 -1,050 Descending Cleveland Center
Fri 06:46:33 AM 42.6314 -81.5428 261° West 369 425 21,800 -1,000 Descending Cleveland Center
Fri 06:47:33 AM 42.6133 -81.6806 260° West 375 432 20,800 -1,000 Descending Cleveland Center
Fri 06:48:33 AM 42.5972 -81.8297 262° West 368 423 19,800 -1,000 Descending Cleveland Center
Fri 06:49:33 AM 42.5811 -81.9619 261° West 368 423 18,800 -900 Descending Cleveland Center
Fri 06:50:33 AM 42.5628 -82.0942 259° West 368 423 18,000 -1,129 Descending Cleveland Center
Fri 06:50:58 AM 42.5578 -82.1503 263° West 349 402 17,200 -1,837 Descending Cleveland Center
Fri 06:51:22 AM 42.5511 -82.1953 259° West 343 395 16,500 -1,765 Descending Cleveland Center
Fri 06:52:23 AM 42.5367 -82.3217 261° West 334 384 14,700 -1,786 Descending Cleveland Center
Fri 06:53:33 AM 42.5156 -82.4678 259° West 344 396 12,600 -1,200 Descending Cleveland Center
Fri 06:54:33 AM 42.4928 -82.5881 256° West 339 390 12,100 -600 Descending Cleveland Center
Fri 06:55:33 AM 42.4533 -82.6994 244° Southwest 334 384 11,400 -850 Descending Cleveland Center
Fri 06:56:33 AM 42.4181 -82.7967 244° Southwest 321 369 10,400 -1,300 Descending Cleveland Center
Fri 06:57:33 AM 42.3933 -82.8886 250° West 287 330 8,800 -1,500 Descending Cleveland Center
Fri 06:58:33 AM 42.3872 -82.9839 265° West 263 303 7,400 -1,350 Descending Cleveland Center
Fri 06:59:33 AM 42.3831 -83.0767 267° West 258 297 6,100 -1,200 Descending Cleveland Center
Fri 07:00:33 AM 42.3708 -83.1661 260° West 253 291 5,000 -934 Descending Cleveland Center
Fri 07:01:35 AM 42.3400 -83.2378 240° Southwest 184 212 4,200 -1,122 Descending Cleveland Center
Fri 07:02:36 AM 42.2994 -83.2756 215° Southwest 176 203 2,700 -1,475 Descending Cleveland Center

Login

Don't have an account? Register now (free) for customized features, flight alerts, and more!